RJTU(METAR)
06/25 08:00
METAR RJTU 242300Z VRB01KT 6000 FEW006 SCT012 20/18 Q1018 RMK 1ST006
3CU012 A3008=
戻る
トップページへ戻る
IMOC Co,.Ltd.